Time;durP1;ratioP1;P1;durP2;ratioP2;P2;SDS_P1;SDS_P2;PMS_P1;PMS_P2;Temp;Humidity;BMP_temperature;BMP_pressure;BME280_temperature;BME280_humidity;BME280_pressure;Samples;Min_cycle;Max_cycle;Signal;HPM_P1;HPM_P2
2022/12/21 00:00:12;;;;;;;;;;;;;;;4.64;52.66;99846.72;4515408;31;34913;-81
2022/12/21 00:02:40;;;;;;;;;;;;;;;6.14;48.90;99835.38;4515647;31;34086;-82
2022/12/21 00:05:08;;;;;;;;;;;;;;;6.40;47.77;99835.53;4512089;31;33733;-82
2022/12/21 00:07:35;;;;;;;;;;;;;;;5.55;49.37;99839.72;4499353;31;33391;-81
2022/12/21 00:10:03;;;;;;;;;;;;;;;4.87;51.33;99846.09;4489062;31;33779;-81
2022/12/21 00:12:30;;;;;;;;;;;;;;;4.19;53.26;99846.25;4515780;31;34987;-82
2022/12/21 00:14:57;;;;;;;;;;;;;;;4.82;51.95;99847.56;4516127;31;33780;-82
2022/12/21 00:17:24;;;;;;;;;;;;;;;5.16;50.40;99846.56;4516135;31;34093;-80
2022/12/21 00:19:51;;;;;;;;;;;;;;;4.88;51.51;99842.69;4514748;31;34579;-82
2022/12/21 00:22:19;;;;;;;;;;;;;;;4.99;51.35;99844.91;4515691;31;34996;-82
2022/12/21 00:24:46;;;;;;;;;;;;;;;4.51;52.82;99844.34;4515584;31;34288;-82
2022/12/21 00:27:13;;;;;;;;;;;;;;;4.46;52.81;99833.00;4515952;31;34298;-81
2022/12/21 00:29:41;;;;;;;;;;;;;;;4.51;52.34;99839.22;4504327;31;34908;-82
2022/12/21 00:32:09;;;;;;;;;;;;;;;4.79;51.55;99839.72;4513849;31;34119;-81
2022/12/21 00:34:36;;;;;;;;;;;;;;;4.34;52.16;99847.00;4509204;31;34217;-82
2022/12/21 00:37:03;;;;;;;;;;;;;;;4.63;52.41;99838.12;4511917;31;32963;-84
2022/12/21 00:39:31;;;;;;;;;;;;;;;4.50;52.37;99829.75;4509116;31;34870;-84
2022/12/21 00:41:58;;;;;;;;;;;;;;;4.59;51.96;99835.34;4514295;31;34815;-83
2022/12/21 00:44:25;;;;;;;;;;;;;;;5.23;50.51;99832.28;4515369;31;34751;-84
2022/12/21 00:46:52;;;;;;;;;;;;;;;3.97;53.32;99830.63;4513154;31;33403;-84
2022/12/21 00:49:20;;;;;;;;;;;;;;;4.79;51.46;99838.84;4475637;31;872785;-84
2022/12/21 00:51:52;;;;;;;;;;;;;;;3.98;53.71;99834.94;4506329;31;34020;-84
2022/12/21 00:54:19;;;;;;;;;;;;;;;3.66;54.65;99839.34;4514437;31;34398;-83
2022/12/21 00:56:47;;;;;;;;;;;;;;;4.38;53.12;99835.19;4500197;31;33993;-84
2022/12/21 00:59:14;;;;;;;;;;;;;;;4.07;53.50;99838.84;4501029;31;33937;-83
2022/12/21 01:01:41;;;;;;;;;;;;;;;3.65;54.48;99848.72;4509637;31;34390;-84
2022/12/21 01:04:09;;;;;;;;;;;;;;;3.75;54.65;99839.81;4515613;31;34982;-83
2022/12/21 01:06:36;;;;;;;;;;;;;;;4.05;53.66;99834.44;4512443;31;33025;-84
2022/12/21 01:09:04;;;;;;;;;;;;;;;4.24;53.29;99831.97;4507804;31;33823;-84
2022/12/21 01:11:32;;;;;;;;;;;;;;;3.92;53.54;99832.09;4511535;31;33905;-82
2022/12/21 01:13:59;;;;;;;;;;;;;;;4.65;51.91;99830.50;4508953;31;34491;-83
2022/12/21 01:16:28;;;;;;;;;;;;;;;3.87;53.16;99830.19;4500974;31;33495;-84
2022/12/21 01:18:56;;;;;;;;;;;;;;;4.58;52.44;99818.16;4499943;31;33718;-83
2022/12/21 01:21:26;;;;;;;;;;;;;;;4.55;51.84;99821.50;4506762;31;35147;-82
2022/12/21 01:23:54;;;;;;;;;;;;;;;4.51;52.27;99822.16;4502582;31;33539;-83
2022/12/21 01:26:21;;;;;;;;;;;;;;;4.74;51.70;99819.78;4513050;31;33190;-83
2022/12/21 01:28:49;;;;;;;;;;;;;;;4.53;52.26;99812.81;4515341;31;34148;-84
2022/12/21 01:31:16;;;;;;;;;;;;;;;5.22;50.73;99802.22;4509819;31;33942;-83
2022/12/21 01:33:44;;;;;;;;;;;;;;;4.61;51.97;99802.91;4509773;31;34466;-82
2022/12/21 01:36:13;;;;;;;;;;;;;;;4.24;53.15;99800.28;4512589;31;34002;-84
2022/12/21 01:38:41;;;;;;;;;;;;;;;3.96;53.50;99801.53;4507514;31;34970;-84
2022/12/21 01:41:12;;;;;;;;;;;;;;;4.28;52.83;99782.56;4513070;31;34007;-83
2022/12/21 01:43:48;;;;;;;;;;;;;;;4.25;53.06;99790.13;4511399;31;34013;-83
2022/12/21 01:46:43;;;;;;;;;;;;;;;3.88;53.46;99785.75;4514198;31;33809;-84
2022/12/21 01:49:14;;;;;;;;;;;;;;;3.68;54.28;99786.47;4508071;31;33719;-84
2022/12/21 01:51:42;;;;;;;;;;;;;;;4.08;53.38;99773.00;4492369;31;34337;-83
2022/12/21 01:54:14;;;;;;;;;;;;;;;3.87;53.93;99771.19;4515112;31;33932;-83
2022/12/21 01:56:42;;;;;;;;;;;;;;;5.19;50.71;99774.72;4500891;31;33533;-84
2022/12/21 01:59:13;;;;;;;;;;;;;;;4.66;51.45;99773.19;4513654;31;34359;-83
2022/12/21 02:01:41;;;;;;;;;;;;;;;4.49;51.87;99769.84;4507055;31;34094;-82
2022/12/21 02:04:08;;;;;;;;;;;;;;;4.94;51.25;99757.34;4490672;31;35026;-83
2022/12/21 02:06:41;;;;;;;;;;;;;;;4.49;51.84;99761.25;4494237;31;33386;-83
2022/12/21 02:09:08;;;;;;;;;;;;;;;4.91;50.99;99753.75;4489515;31;34526;-83
2022/12/21 02:11:35;;;;;;;;;;;;;;;5.10;50.19;99762.31;4514889;31;34099;-83
2022/12/21 02:14:04;;;;;;;;;;;;;;;5.22;50.25;99758.53;4514494;31;34395;-82
2022/12/21 02:16:55;;;;;;;;;;;;;;;5.13;49.87;99751.31;4500905;31;34022;-83
2022/12/21 02:19:35;;;;;;;;;;;;;;;5.30;49.79;99750.37;4486914;31;34592;-82
2022/12/21 02:22:06;;;;;;;;;;;;;;;4.96;49.95;99749.69;4500209;31;34129;-83
2022/12/21 02:24:39;;;;;;;;;;;;;;;5.25;50.11;99746.69;4485526;31;34824;-83
2022/12/21 02:27:18;;;;;;;;;;;;;;;4.85;50.48;99736.38;4509114;31;34138;-83
2022/12/21 02:29:46;;;;;;;;;;;;;;;5.29;49.57;99735.72;4513468;31;34840;-82
2022/12/21 02:32:13;;;;;;;;;;;;;;;4.94;50.55;99743.59;4510241;31;35075;-82
2022/12/21 02:34:50;;;;;;;;;;;;;;;4.48;51.30;99744.09;4514290;31;34038;-83
2022/12/21 02:37:50;;;;;;;;;;;;;;;5.37;49.70;99742.06;4495717;31;33563;-82
2022/12/21 02:40:17;;;;;;;;;;;;;;;5.01;50.82;99737.94;4483882;31;34199;-82
2022/12/21 02:45:48;;;;;;;;;;;;;;;3.47;55.18;99723.84;4488080;31;34594;-83
2022/12/21 02:48:23;;;;;;;;;;;;;;;3.58;55.58;99718.47;4499434;31;33994;-83
2022/12/21 02:50:52;;;;;;;;;;;;;;;3.92;54.95;99708.97;4495517;31;34135;-83
2022/12/21 02:53:20;;;;;;;;;;;;;;;3.62;55.25;99714.34;4488418;31;34446;-82
2022/12/21 02:55:48;;;;;;;;;;;;;;;4.19;53.58;99710.25;4509001;31;34133;-82
2022/12/21 02:58:19;;;;;;;;;;;;;;;4.92;51.66;99711.81;4514466;31;33601;-82
2022/12/21 03:00:50;;;;;;;;;;;;;;;4.47;52.56;99704.72;4509288;31;34851;-83
2022/12/21 03:06:17;;;;;;;;;;;;;;;3.71;54.43;99696.84;4512526;31;34825;-82
2022/12/21 03:08:59;;;;;;;;;;;;;;;4.43;52.71;99694.22;4484979;31;32730;-83
2022/12/21 03:11:39;;;;;;;;;;;;;;;4.42;52.27;99700.16;4510158;31;34121;-82
2022/12/21 03:14:09;;;;;;;;;;;;;;;3.96;53.17;99700.59;4514858;31;33904;-83
2022/12/21 03:16:46;;;;;;;;;;;;;;;3.89;53.85;99690.03;4497686;31;33746;-82
2022/12/21 03:19:19;;;;;;;;;;;;;;;4.08;52.58;99689.22;4494673;31;33054;-82
2022/12/21 03:21:56;;;;;;;;;;;;;;;4.36;52.37;99688.81;4514456;31;34010;-82
2022/12/21 03:24:26;;;;;;;;;;;;;;;4.04;52.34;99679.63;4498437;31;35195;-83
2022/12/21 03:26:56;;;;;;;;;;;;;;;4.49;51.97;99679.09;4484333;31;34003;-83
2022/12/21 03:29:25;;;;;;;;;;;;;;;3.88;53.18;99680.59;4491059;31;32981;-82
2022/12/21 03:31:59;;;;;;;;;;;;;;;4.82;51.10;99664.31;4497998;31;34140;-82
2022/12/21 03:34:28;;;;;;;;;;;;;;;4.42;52.10;99671.94;4498677;31;34341;-83
2022/12/21 03:36:56;;;;;;;;;;;;;;;3.86;52.90;99689.00;4484290;31;34195;-83
2022/12/21 03:39:24;;;;;;;;;;;;;;;4.40;51.80;99682.16;4498494;31;34246;-83
2022/12/21 03:41:53;;;;;;;;;;;;;;;5.08;50.09;99683.44;4512053;31;34793;-82
2022/12/21 03:44:21;;;;;;;;;;;;;;;4.42;51.54;99687.34;4510769;31;34462;-83
2022/12/21 03:46:58;;;;;;;;;;;;;;;4.71;51.00;99686.94;4498902;31;34212;-83
2022/12/21 03:49:28;;;;;;;;;;;;;;;4.05;52.04;99683.97;4512920;31;33600;-83
2022/12/21 03:52:01;;;;;;;;;;;;;;;4.34;51.52;99690.44;4499281;31;33870;-83
2022/12/21 03:54:47;;;;;;;;;;;;;;;4.86;50.72;99689.31;4489904;31;33989;-83
2022/12/21 03:57:15;;;;;;;;;;;;;;;4.14;51.77;99688.63;4498152;31;34834;-82
2022/12/21 03:59:43;;;;;;;;;;;;;;;3.85;52.26;99689.81;4497080;31;33774;-83
2022/12/21 04:02:24;;;;;;;;;;;;;;;4.45;51.60;99675.50;4498633;31;34069;-83
2022/12/21 04:05:07;;;;;;;;;;;;;;;4.10;52.07;99691.88;4489961;31;34204;-83
2022/12/21 04:07:34;;;;;;;;;;;;;;;4.44;51.57;99688.28;4497821;31;33911;-83
2022/12/21 04:10:04;;;;;;;;;;;;;;;4.83;50.19;99692.62;4504549;31;33517;-82
2022/12/21 04:12:37;;;;;;;;;;;;;;;5.09;49.29;99678.34;4483612;31;32800;-82
2022/12/21 04:15:06;;;;;;;;;;;;;;;4.18;51.02;99677.72;4493971;31;34538;-82
2022/12/21 04:17:34;;;;;;;;;;;;;;;4.00;51.43;99684.53;4515613;31;33972;-83
2022/12/21 04:20:02;;;;;;;;;;;;;;;3.91;51.87;99679.88;4515929;31;32501;-82
2022/12/21 04:28:09;;;;;;;;;;;;;;;4.68;49.66;99666.25;4504624;31;34128;-82
2022/12/21 04:30:58;;;;;;;;;;;;;;;4.07;50.74;99660.94;4514026;31;33316;-83
2022/12/21 04:33:26;;;;;;;;;;;;;;;3.56;52.19;99655.09;4515483;31;34997;-82
2022/12/21 04:38:42;;;;;;;;;;;;;;;4.25;49.72;99648.94;4511552;31;34313;-82
2022/12/21 04:41:09;;;;;;;;;;;;;;;4.14;49.90;99655.28;4479724;31;32728;-83
2022/12/21 04:43:40;;;;;;;;;;;;;;;4.61;48.72;99656.53;4511135;31;35201;-83
2022/12/21 04:46:08;;;;;;;;;;;;;;;4.02;49.47;99662.41;4515591;31;34493;-83
2022/12/21 04:48:36;;;;;;;;;;;;;;;4.22;49.55;99651.37;4515689;31;35067;-83
2022/12/21 04:51:07;;;;;;;;;;;;;;;3.74;50.22;99667.91;4513102;31;32738;-82
2022/12/21 04:53:35;;;;;;;;;;;;;;;3.80;50.56;99666.53;4514580;31;33965;-82
2022/12/21 04:56:03;;;;;;;;;;;;;;;3.85;49.87;99661.59;4515381;31;35186;-83
2022/12/21 04:58:31;;;;;;;;;;;;;;;3.21;51.33;99661.94;4515535;31;33773;-83
2022/12/21 05:00:59;;;;;;;;;;;;;;;3.80;50.16;99643.44;4513651;31;34072;-82
2022/12/21 05:03:26;;;;;;;;;;;;;;;4.31;48.59;99643.19;4514219;31;34281;-82
2022/12/21 05:05:53;;;;;;;;;;;;;;;4.37;48.52;99651.19;4504422;31;35331;-83
2022/12/21 05:08:21;;;;;;;;;;;;;;;3.99;49.21;99649.44;4515695;31;33862;-83
2022/12/21 05:10:49;;;;;;;;;;;;;;;4.58;47.82;99657.28;4514322;31;33411;-82
2022/12/21 05:13:16;;;;;;;;;;;;;;;3.65;49.79;99647.84;4507811;31;34905;-82
2022/12/21 05:15:44;;;;;;;;;;;;;;;4.14;49.19;99645.88;4513140;31;35036;-83
2022/12/21 05:18:11;;;;;;;;;;;;;;;4.11;49.48;99650.00;4514422;31;34277;-83
2022/12/21 05:20:38;;;;;;;;;;;;;;;3.46;50.88;99647.78;4514984;31;34133;-83
2022/12/21 05:23:06;;;;;;;;;;;;;;;3.77;50.57;99645.88;4514519;31;35401;-83
2022/12/21 05:25:33;;;;;;;;;;;;;;;4.51;48.13;99639.84;4510565;31;33736;-82
2022/12/21 05:28:00;;;;;;;;;;;;;;;3.18;50.82;99646.41;4505799;31;34984;-82
2022/12/21 05:30:27;;;;;;;;;;;;;;;2.75;52.64;99633.13;4514883;31;33168;-82
2022/12/21 05:32:55;;;;;;;;;;;;;;;2.46;54.15;99649.53;4512727;31;34250;-83
2022/12/21 05:35:22;;;;;;;;;;;;;;;3.32;52.62;99640.28;4498082;31;33641;-82
2022/12/21 05:37:49;;;;;;;;;;;;;;;3.84;50.71;99645.34;4509636;31;34014;-83
2022/12/21 05:40:16;;;;;;;;;;;;;;;3.93;51.74;99641.44;4515295;31;34175;-83
2022/12/21 05:42:48;;;;;;;;;;;;;;;3.81;51.74;99637.50;4512990;31;34145;-83
2022/12/21 05:45:15;;;;;;;;;;;;;;;4.35;50.36;99642.53;4513984;31;33662;-83
2022/12/21 05:48:01;;;;;;;;;;;;;;;4.02;51.39;99641.91;4485009;31;34639;-84
2022/12/21 05:50:28;;;;;;;;;;;;;;;3.21;52.33;99649.13;4485095;31;32796;-82
2022/12/21 05:52:56;;;;;;;;;;;;;;;3.56;52.56;99637.13;4485057;31;33990;-83
2022/12/21 05:55:23;;;;;;;;;;;;;;;3.68;53.00;99631.75;4507990;31;35070;-83
2022/12/21 05:57:50;;;;;;;;;;;;;;;4.11;51.58;99624.34;4493063;31;32729;-83
2022/12/21 06:00:18;;;;;;;;;;;;;;;5.00;49.16;99623.09;4502325;31;34062;-83
2022/12/21 06:02:45;;;;;;;;;;;;;;;4.24;50.37;99620.63;4499952;31;34211;-82
2022/12/21 06:05:13;;;;;;;;;;;;;;;4.35;50.35;99616.84;4498558;31;33771;-82
2022/12/21 06:07:40;;;;;;;;;;;;;;;3.70;52.10;99635.25;4505545;31;33981;-82
2022/12/21 06:10:08;;;;;;;;;;;;;;;4.65;50.01;99630.16;4507904;31;33048;-83
2022/12/21 06:12:35;;;;;;;;;;;;;;;4.24;50.71;99629.22;4515073;31;34602;-83
2022/12/21 06:15:02;;;;;;;;;;;;;;;4.15;50.64;99628.81;4513517;31;33706;-82
2022/12/21 06:17:30;;;;;;;;;;;;;;;3.44;53.05;99631.44;4515381;31;35204;-83
2022/12/21 06:19:57;;;;;;;;;;;;;;;4.42;50.54;99633.41;4507702;31;33640;-84
2022/12/21 06:22:24;;;;;;;;;;;;;;;3.85;51.23;99626.56;4511777;31;34687;-83
2022/12/21 06:24:52;;;;;;;;;;;;;;;3.44;52.20;99632.31;4507030;31;34355;-83
2022/12/21 06:27:19;;;;;;;;;;;;;;;4.26;50.72;99632.75;4510998;31;34120;-84
2022/12/21 06:29:46;;;;;;;;;;;;;;;4.13;51.05;99640.69;4502302;31;33071;-83
2022/12/21 06:32:13;;;;;;;;;;;;;;;3.92;51.24;99647.41;4514987;31;34233;-82
2022/12/21 06:34:41;;;;;;;;;;;;;;;4.39;50.45;99641.84;4514182;31;35160;-82
2022/12/21 06:37:09;;;;;;;;;;;;;;;4.32;50.38;99638.16;4500159;31;33833;-83
2022/12/21 06:39:37;;;;;;;;;;;;;;;4.51;49.87;99627.03;4499020;31;33192;-82
2022/12/21 06:42:04;;;;;;;;;;;;;;;3.58;52.12;99630.41;4505431;31;35100;-85
2022/12/21 06:44:32;;;;;;;;;;;;;;;3.65;51.87;99623.09;4511766;31;34013;-84
2022/12/21 06:47:00;;;;;;;;;;;;;;;3.92;51.10;99619.19;4514807;31;34879;-82
2022/12/21 06:49:27;;;;;;;;;;;;;;;3.08;53.00;99618.59;4498176;31;34420;-84
2022/12/21 06:51:54;;;;;;;;;;;;;;;4.04;50.94;99617.16;4498840;31;34047;-84
2022/12/21 06:54:21;;;;;;;;;;;;;;;3.83;51.00;99623.09;4498673;31;34480;-84
2022/12/21 06:56:49;;;;;;;;;;;;;;;3.97;50.68;99623.69;4499010;31;33496;-84
2022/12/21 06:59:16;;;;;;;;;;;;;;;3.40;52.13;99609.91;4501542;31;33379;-83
2022/12/21 07:01:43;;;;;;;;;;;;;;;3.66;51.63;99614.56;4514009;31;33936;-85
2022/12/21 07:04:11;;;;;;;;;;;;;;;4.25;50.49;99618.16;4514891;31;34088;-84
2022/12/21 07:06:38;;;;;;;;;;;;;;;4.31;50.24;99614.97;4514622;31;35067;-84
2022/12/21 07:09:05;;;;;;;;;;;;;;;4.28;50.13;99608.03;4513763;31;31762;-85
2022/12/21 07:11:33;;;;;;;;;;;;;;;4.22;49.89;99618.00;4490691;31;33371;-84
2022/12/21 07:14:00;;;;;;;;;;;;;;;3.82;51.32;99621.31;4506912;31;33548;-84
2022/12/21 07:16:27;;;;;;;;;;;;;;;3.92;51.05;99606.34;4514609;31;34356;-84
2022/12/21 07:18:55;;;;;;;;;;;;;;;3.63;51.70;99616.12;4506171;31;33157;-86
2022/12/21 07:21:22;;;;;;;;;;;;;;;3.85;51.16;99618.88;4509686;31;34276;-85
2022/12/21 07:23:50;;;;;;;;;;;;;;;4.15;50.35;99610.84;4514088;31;33939;-84
2022/12/21 07:26:18;;;;;;;;;;;;;;;4.20;50.51;99617.06;4513150;31;33804;-87
2022/12/21 07:28:45;;;;;;;;;;;;;;;3.96;50.60;99619.37;4513947;31;32808;-84
2022/12/21 07:31:15;;;;;;;;;;;;;;;3.58;51.69;99626.16;4499762;31;33803;-84
2022/12/21 07:33:43;;;;;;;;;;;;;;;4.01;50.59;99611.91;4487383;31;34635;-82
2022/12/21 07:36:10;;;;;;;;;;;;;;;5.22;48.38;99609.44;4509507;31;34115;-83
2022/12/21 07:38:38;;;;;;;;;;;;;;;4.99;48.67;99611.06;4514184;31;34063;-83
2022/12/21 07:41:06;;;;;;;;;;;;;;;4.26;50.13;99613.91;4514261;31;35070;-83
2022/12/21 07:43:34;;;;;;;;;;;;;;;5.29;48.01;99611.47;4513077;31;34350;-83
2022/12/21 07:46:02;;;;;;;;;;;;;;;4.64;49.41;99611.31;4513637;31;33911;-84
2022/12/21 07:48:29;;;;;;;;;;;;;;;4.52;49.33;99602.22;4514110;31;33114;-84
2022/12/21 07:50:57;;;;;;;;;;;;;;;4.11;50.54;99606.38;4515546;31;34783;-84
2022/12/21 07:53:25;;;;;;;;;;;;;;;3.86;51.13;99600.16;4514583;31;34810;-83
2022/12/21 07:55:52;;;;;;;;;;;;;;;4.83;49.33;99600.16;4506736;31;34191;-83
2022/12/21 07:58:20;;;;;;;;;;;;;;;4.11;50.45;99602.13;4509144;31;33663;-84
2022/12/21 08:00:47;;;;;;;;;;;;;;;4.12;50.53;99598.75;4505997;31;33739;-83
2022/12/21 08:03:15;;;;;;;;;;;;;;;4.84;49.06;99607.03;4507805;31;34618;-83
2022/12/21 08:05:42;;;;;;;;;;;;;;;4.06;51.20;99607.88;4505980;31;34007;-83
2022/12/21 08:08:09;;;;;;;;;;;;;;;4.07;50.43;99610.50;4513381;31;33524;-83
2022/12/21 08:10:37;;;;;;;;;;;;;;;4.56;49.70;99616.94;4516168;31;35079;-83
2022/12/21 08:13:04;;;;;;;;;;;;;;;4.33;49.74;99613.37;4515919;31;34091;-82
2022/12/21 08:15:31;;;;;;;;;;;;;;;4.84;49.24;99606.16;4515953;31;34553;-83
2022/12/21 08:17:59;;;;;;;;;;;;;;;5.36;47.60;99598.91;4503583;31;33501;-84
2022/12/21 08:20:33;;;;;;;;;;;;;;;4.91;48.39;99591.88;4511151;31;34067;-83
2022/12/21 08:23:00;;;;;;;;;;;;;;;5.55;47.43;99595.38;4516132;31;34866;-81
2022/12/21 08:25:28;;;;;;;;;;;;;;;4.95;48.31;99583.50;4516249;31;34875;-84
2022/12/21 08:27:55;;;;;;;;;;;;;;;4.36;50.02;99601.53;4515007;31;33075;-83
2022/12/21 08:30:22;;;;;;;;;;;;;;;4.96;48.65;99596.37;4501623;31;33961;-84
2022/12/21 08:32:50;;;;;;;;;;;;;;;5.74;46.77;99598.69;4516110;31;34933;-84
2022/12/21 08:35:17;;;;;;;;;;;;;;;4.86;48.84;99594.28;4515034;31;33735;-84
2022/12/21 08:37:44;;;;;;;;;;;;;;;5.59;47.35;99596.37;4509980;31;33216;-84
2022/12/21 08:40:12;;;;;;;;;;;;;;;5.16;48.42;99601.50;4506995;31;34160;-84
2022/12/21 08:42:39;;;;;;;;;;;;;;;5.19;48.51;99589.66;4502983;31;34143;-84
2022/12/21 08:45:07;;;;;;;;;;;;;;;5.46;47.77;99595.03;4512582;31;34142;-82
2022/12/21 08:47:34;;;;;;;;;;;;;;;4.94;48.76;99586.88;4499819;31;32995;-84
2022/12/21 08:50:02;;;;;;;;;;;;;;;5.19;48.59;99599.94;4499756;31;34107;-83
2022/12/21 08:52:29;;;;;;;;;;;;;;;5.35;47.62;99592.03;4514637;31;33635;-84
2022/12/21 08:54:57;;;;;;;;;;;;;;;4.80;49.43;99594.88;4515419;31;34614;-84
2022/12/21 08:57:24;;;;;;;;;;;;;;;4.93;48.63;99591.16;4485501;31;32907;-83
2022/12/21 08:59:51;;;;;;;;;;;;;;;4.93;49.27;99590.28;4499694;31;34156;-84
2022/12/21 09:02:18;;;;;;;;;;;;;;;4.85;49.35;99588.25;4512722;31;34821;-84
2022/12/21 09:04:46;;;;;;;;;;;;;;;5.10;48.82;99595.28;4513600;31;34204;-84
2022/12/21 09:07:13;;;;;;;;;;;;;;;4.81;49.49;99593.19;4515406;31;33435;-82
2022/12/21 09:09:40;;;;;;;;;;;;;;;5.48;47.72;99598.53;4515687;31;34336;-84
2022/12/21 09:12:07;;;;;;;;;;;;;;;5.96;46.56;99590.13;4501109;31;33296;-84
2022/12/21 09:14:35;;;;;;;;;;;;;;;5.72;47.17;99595.16;4506578;31;34143;-83
2022/12/21 09:17:03;;;;;;;;;;;;;;;4.97;48.97;99592.16;4505806;31;33376;-84
2022/12/21 09:19:31;;;;;;;;;;;;;;;5.44;48.11;99588.06;4511725;31;34263;-83
2022/12/21 09:21:58;;;;;;;;;;;;;;;5.65;47.52;99591.50;4499456;31;35350;-84
2022/12/21 09:24:25;;;;;;;;;;;;;;;5.93;46.70;99577.13;4513145;31;34480;-84
2022/12/21 09:26:53;;;;;;;;;;;;;;;5.34;48.24;99577.41;4501142;31;33333;-84
2022/12/21 09:29:22;;;;;;;;;;;;;;;5.31;47.89;99567.00;4514283;31;34007;-84
2022/12/21 09:31:50;;;;;;;;;;;;;;;5.24;48.23;99566.69;4500733;31;34535;-84
2022/12/21 09:34:17;;;;;;;;;;;;;;;4.69;49.59;99554.13;4514714;31;34374;-84
2022/12/21 09:36:45;;;;;;;;;;;;;;;5.68;47.96;99560.72;4514999;31;33743;-84
2022/12/21 09:39:32;;;;;;;;;;;;;;;4.93;49.78;99552.59;4515300;31;33968;-85
2022/12/21 09:41:59;;;;;;;;;;;;;;;5.47;48.34;99549.63;4507371;31;34138;-83
2022/12/21 09:44:56;;;;;;;;;;;;;;;6.16;46.88;99550.53;4501411;31;33892;-83
2022/12/21 09:47:49;;;;;;;;;;;;;;;5.85;47.30;99554.53;4457794;31;34187;-83
2022/12/21 09:50:24;;;;;;;;;;;;;;;5.79;46.76;99549.13;4474600;31;33709;-83
2022/12/21 09:53:02;;;;;;;;;;;;;;;6.89;45.22;99534.19;4508532;31;34225;-83
2022/12/21 09:55:31;;;;;;;;;;;;;;;7.65;43.29;99538.34;4497283;31;34895;-83
2022/12/21 09:57:58;;;;;;;;;;;;;;;6.75;44.96;99533.75;4498355;31;33216;-83
2022/12/21 10:00:26;;;;;;;;;;;;;;;6.74;44.85;99532.00;4497817;31;34970;-82
2022/12/21 10:02:59;;;;;;;;;;;;;;;6.24;45.74;99533.66;4522177;31;34443;-83
2022/12/21 10:05:34;;;;;;;;;;;;;;;6.53;45.59;99531.25;4516815;31;34956;-83
2022/12/21 10:08:14;;;;;;;;;;;;;;;7.39;43.76;99527.22;4499757;31;33388;-83
2022/12/21 10:10:59;;;;;;;;;;;;;;;6.20;46.09;99528.37;4515249;31;34953;-85
2022/12/21 10:13:33;;;;;;;;;;;;;;;6.65;44.81;99518.78;4512695;31;34409;-82
2022/12/21 10:16:03;;;;;;;;;;;;;;;7.47;43.64;99527.47;4514557;31;34822;-84
2022/12/21 10:18:34;;;;;;;;;;;;;;;7.17;44.31;99520.50;4500948;31;33049;-84
2022/12/21 10:21:04;;;;;;;;;;;;;;;8.02;42.02;99516.16;4515381;31;33692;-83
2022/12/21 10:23:33;;;;;;;;;;;;;;;8.21;42.10;99520.16;4500710;31;34896;-84
2022/12/21 10:26:02;;;;;;;;;;;;;;;8.30;41.56;99525.59;4492233;31;34429;-83
2022/12/21 10:28:29;;;;;;;;;;;;;;;7.37;43.15;99521.13;4490774;31;33610;-83
2022/12/21 10:31:02;;;;;;;;;;;;;;;7.67;42.81;99518.59;4508846;31;33810;-83
2022/12/21 10:33:29;;;;;;;;;;;;;;;7.42;43.14;99513.53;4484741;31;35227;-83
2022/12/21 10:36:01;;;;;;;;;;;;;;;7.53;43.15;99512.16;4491556;31;34556;-85
2022/12/21 10:38:29;;;;;;;;;;;;;;;6.54;45.06;99512.41;4496928;31;33023;-84
2022/12/21 10:40:56;;;;;;;;;;;;;;;6.48;45.28;99509.62;4504771;31;33846;-83
2022/12/21 10:43:23;;;;;;;;;;;;;;;6.41;45.74;99502.50;4515171;31;34564;-84
2022/12/21 10:45:51;;;;;;;;;;;;;;;6.20;46.38;99494.91;4510458;31;34732;-84
2022/12/21 10:48:19;;;;;;;;;;;;;;;5.43;47.79;99502.34;4484947;31;33300;-83
2022/12/21 10:51:05;;;;;;;;;;;;;;;5.11;48.84;99501.97;4504775;31;33684;-82
2022/12/21 10:53:40;;;;;;;;;;;;;;;5.04;49.14;99496.53;4506130;31;34090;-82
2022/12/21 10:56:08;;;;;;;;;;;;;;;5.66;47.93;99494.62;4491245;31;34167;-83
2022/12/21 10:58:35;;;;;;;;;;;;;;;6.08;46.77;99477.31;4486869;31;33933;-82
2022/12/21 11:01:06;;;;;;;;;;;;;;;5.66;47.80;99474.91;4489441;31;34037;-82
2022/12/21 11:03:36;;;;;;;;;;;;;;;4.57;50.52;99480.91;4484471;31;34157;-82
2022/12/21 11:06:16;;;;;;;;;;;;;;;5.20;49.46;99475.75;4485551;31;34491;-82
2022/12/21 11:08:47;;;;;;;;;;;;;;;5.53;47.87;99485.53;4514607;31;34387;-82
2022/12/21 11:11:33;;;;;;;;;;;;;;;5.97;47.33;99470.91;4512533;31;33322;-83
2022/12/21 11:14:01;;;;;;;;;;;;;;;5.52;47.68;99473.50;4500884;31;35003;-82
2022/12/21 11:16:35;;;;;;;;;;;;;;;5.39;48.64;99463.59;4509623;31;34507;-82
2022/12/21 11:19:03;;;;;;;;;;;;;;;4.87;49.86;99471.00;4514546;31;33715;-82
2022/12/21 11:21:56;;;;;;;;;;;;;;;5.73;48.27;99455.44;4514366;31;33633;-84
2022/12/21 11:24:24;;;;;;;;;;;;;;;6.49;46.79;99457.28;4507209;31;35350;-82
2022/12/21 11:26:53;;;;;;;;;;;;;;;6.73;45.29;99460.66;4509084;31;33923;-82
2022/12/21 11:29:24;;;;;;;;;;;;;;;5.78;47.37;99454.78;4509291;31;34029;-84
2022/12/21 11:31:53;;;;;;;;;;;;;;;5.44;48.22;99459.50;4482340;31;33495;-82
2022/12/21 11:34:31;;;;;;;;;;;;;;;6.21;46.95;99458.03;4488502;31;34457;-82
2022/12/21 11:37:00;;;;;;;;;;;;;;;5.54;48.00;99459.91;4506750;31;34774;-82
2022/12/21 11:39:45;;;;;;;;;;;;;;;5.58;48.35;99451.47;4505130;31;33333;-82
2022/12/21 11:42:16;;;;;;;;;;;;;;;5.48;48.52;99435.66;4496762;31;35041;-83
2022/12/21 11:44:44;;;;;;;;;;;;;;;6.00;47.52;99442.72;4480842;31;33754;-82
2022/12/21 11:47:18;;;;;;;;;;;;;;;5.44;48.56;99438.94;4506395;31;33715;-83
2022/12/21 11:49:58;;;;;;;;;;;;;;;6.58;46.08;99442.13;4510280;31;33290;-83
2022/12/21 11:52:29;;;;;;;;;;;;;;;6.52;46.11;99442.81;4483599;31;34203;-83
2022/12/21 11:55:02;;;;;;;;;;;;;;;7.24;44.49;99437.37;4501519;31;34059;-84
2022/12/21 11:57:35;;;;;;;;;;;;;;;7.18;44.57;99429.44;4503821;31;35507;-83
2022/12/21 12:00:07;;;;;;;;;;;;;;;6.47;46.07;99428.00;4509554;31;33291;-82
2022/12/21 12:02:54;;;;;;;;;;;;;;;6.55;45.61;99421.41;4490710;31;34346;-83
2022/12/21 12:05:40;;;;;;;;;;;;;;;6.63;46.06;99419.06;4500210;31;35220;-83
2022/12/21 12:08:10;;;;;;;;;;;;;;;6.01;46.70;99416.16;4510463;31;34410;-83
2022/12/21 12:10:41;;;;;;;;;;;;;;;6.03;47.73;99419.66;4490485;31;34381;-83
2022/12/21 12:13:20;;;;;;;;;;;;;;;6.39;46.47;99419.16;4506623;31;34246;-84
2022/12/21 12:16:08;;;;;;;;;;;;;;;6.51;46.21;99406.69;4499848;31;35021;-83
2022/12/21 12:18:40;;;;;;;;;;;;;;;4.93;49.56;99416.44;4509319;31;33947;-82
2022/12/21 12:21:18;;;;;;;;;;;;;;;5.61;48.94;99420.75;4493018;31;34195;-82
2022/12/21 12:23:45;;;;;;;;;;;;;;;4.94;49.71;99430.16;4493608;31;34280;-81
2022/12/21 12:26:13;;;;;;;;;;;;;;;5.33;49.47;99421.41;4483144;31;33620;-83
2022/12/21 12:28:51;;;;;;;;;;;;;;;4.60;51.01;99421.13;4483211;31;33760;-83
2022/12/21 12:31:25;;;;;;;;;;;;;;;5.08;50.59;99427.31;4497447;31;33142;-83
2022/12/21 12:34:00;;;;;;;;;;;;;;;5.66;49.41;99417.44;4512295;31;34056;-84
2022/12/21 12:36:46;;;;;;;;;;;;;;;5.22;49.94;99417.53;4499673;31;34386;-83
2022/12/21 12:39:21;;;;;;;;;;;;;;;5.96;48.25;99407.41;4511303;31;34333;-83
2022/12/21 12:41:49;;;;;;;;;;;;;;;5.85;47.88;99409.56;4486341;31;33462;-83
2022/12/21 12:44:16;;;;;;;;;;;;;;;6.39;46.94;99414.00;4509820;31;34847;-84
2022/12/21 12:46:54;;;;;;;;;;;;;;;6.30;47.27;99415.47;4512628;31;34011;-83
2022/12/21 12:49:31;;;;;;;;;;;;;;;6.79;45.99;99411.91;4515327;31;33936;-84
2022/12/21 12:52:05;;;;;;;;;;;;;;;6.46;46.72;99418.53;4495991;31;33021;-83
2022/12/21 12:54:42;;;;;;;;;;;;;;;6.07;47.24;99414.69;4488166;31;33117;-82
2022/12/21 12:57:13;;;;;;;;;;;;;;;5.37;49.46;99414.66;4500480;31;33996;-82
2022/12/21 12:59:40;;;;;;;;;;;;;;;6.97;45.89;99410.72;4513964;31;34922;-81
2022/12/21 13:02:09;;;;;;;;;;;;;;;6.51;46.72;99409.25;4514311;31;33561;-81
2022/12/21 13:04:40;;;;;;;;;;;;;;;6.29;47.17;99413.72;4500621;31;35083;-81
2022/12/21 13:07:10;;;;;;;;;;;;;;;6.73;46.20;99409.13;4512421;31;35722;-82
2022/12/21 13:09:50;;;;;;;;;;;;;;;6.89;46.08;99410.47;4491144;31;33767;-83
2022/12/21 13:12:17;;;;;;;;;;;;;;;7.20;45.16;99408.88;4515196;31;33266;-82
2022/12/21 13:14:44;;;;;;;;;;;;;;;6.73;46.11;99405.69;4511006;31;34022;-82
2022/12/21 13:17:22;;;;;;;;;;;;;;;6.51;46.38;99409.25;4515230;31;33839;-83
2022/12/21 13:19:49;;;;;;;;;;;;;;;6.81;46.38;99412.81;4504332;31;34330;-82
2022/12/21 13:22:17;;;;;;;;;;;;;;;7.05;45.68;99406.69;4487648;31;33121;-82
2022/12/21 13:24:46;;;;;;;;;;;;;;;6.95;45.90;99417.53;4470701;31;32688;-84
2022/12/21 13:27:16;;;;;;;;;;;;;;;7.20;45.18;99409.72;4488259;31;34576;-84